createdAt,value
2022-07-29T00:01:41.758Z,22.12
2022-07-29T00:04:46.722Z,22.10
2022-07-29T00:07:51.295Z,22.10
2022-07-29T00:10:55.803Z,22.00
2022-07-29T00:14:00.626Z,22.00
2022-07-29T00:17:05.760Z,22.00
2022-07-29T00:20:12.542Z,22.00
2022-07-29T00:23:17.196Z,22.00
2022-07-29T00:26:22.157Z,22.00
2022-07-29T00:29:35.087Z,22.00
2022-07-29T00:32:40.281Z,21.94
2022-07-29T00:35:45.527Z,21.94
2022-07-29T00:38:51.324Z,21.94
2022-07-29T00:41:56.437Z,21.92
2022-07-29T00:45:03.514Z,21.98
2022-07-29T00:48:10.881Z,21.98
2022-07-29T00:51:15.969Z,21.90
2022-07-29T00:54:20.919Z,21.90
2022-07-29T00:57:25.890Z,21.90
2022-07-29T01:00:31.519Z,21.90
2022-07-29T01:03:36.679Z,21.80
2022-07-29T01:06:41.956Z,21.80
2022-07-29T01:09:48.139Z,21.80
2022-07-29T01:12:58.109Z,21.72
2022-07-29T01:16:14.036Z,21.70
2022-07-29T01:19:49.798Z,21.70
2022-07-29T01:23:22.915Z,21.64
2022-07-29T01:26:50.463Z,21.60
2022-07-29T01:29:59.143Z,21.60
2022-07-29T01:33:09.651Z,21.60
2022-07-29T01:36:24.429Z,21.56
2022-07-29T01:39:35.993Z,21.50
2022-07-29T01:42:47.715Z,21.50
2022-07-29T01:46:00.754Z,21.50
2022-07-29T01:49:14.367Z,21.50
2022-07-29T01:52:28.304Z,21.50
2022-07-29T01:55:39.335Z,21.50
2022-07-29T01:58:46.665Z,21.50
2022-07-29T02:01:54.662Z,21.44
2022-07-29T02:05:03.138Z,21.40
2022-07-29T02:08:10.860Z,21.40
2022-07-29T02:11:16.387Z,21.40
2022-07-29T02:14:24.069Z,21.34
2022-07-29T02:17:34.495Z,21.30
2022-07-29T02:20:46.808Z,21.30
2022-07-29T02:23:53.433Z,21.20
2022-07-29T02:27:01.325Z,21.20
2022-07-29T02:30:10.618Z,21.20
2022-07-29T02:33:19.323Z,21.10
2022-07-29T02:36:26.386Z,21.12
2022-07-29T02:39:32.762Z,21.10
2022-07-29T02:42:42.354Z,21.10
2022-07-29T02:45:48.250Z,21.10
2022-07-29T02:49:04.961Z,21.10
2022-07-29T02:52:22.911Z,21.10
2022-07-29T02:55:33.707Z,21.10
2022-07-29T02:58:46.540Z,21.02
2022-07-29T03:01:53.585Z,21.00
2022-07-29T03:05:01.017Z,21.00
2022-07-29T03:08:10.339Z,21.00
2022-07-29T03:11:16.245Z,21.08
2022-07-29T03:14:23.334Z,21.10
2022-07-29T03:17:28.639Z,21.10
2022-07-29T03:20:33.827Z,21.10
2022-07-29T03:23:44.283Z,21.10
2022-07-29T03:26:49.113Z,21.10
2022-07-29T03:29:53.749Z,21.10
2022-07-29T03:32:59.040Z,21.10
2022-07-29T03:36:03.954Z,21.10
2022-07-29T03:39:10.415Z,21.10
2022-07-29T03:42:18.934Z,21.12
2022-07-29T03:45:25.778Z,21.18
2022-07-29T03:48:36.161Z,21.20
2022-07-29T03:51:41.488Z,21.20
2022-07-29T03:54:46.724Z,21.20
2022-07-29T03:57:53.240Z,21.30
2022-07-29T04:00:59.292Z,21.30
2022-07-29T04:04:05.193Z,21.30
2022-07-29T04:07:15.743Z,21.40
2022-07-29T04:10:28.323Z,21.40
2022-07-29T04:13:36.963Z,21.48
2022-07-29T04:16:41.614Z,21.50
2022-07-29T04:19:46.144Z,21.50
2022-07-29T04:22:51.316Z,21.60
2022-07-29T04:25:55.897Z,21.60
2022-07-29T04:29:00.906Z,21.60
2022-07-29T04:32:06.884Z,21.70
2022-07-29T04:35:12.271Z,21.70
2022-07-29T04:38:17.320Z,21.80
2022-07-29T04:41:22.194Z,21.84
2022-07-29T04:44:29.179Z,21.90
2022-07-29T04:47:34.154Z,21.94
2022-07-29T04:50:41.160Z,22.00
2022-07-29T04:53:46.217Z,22.10
2022-07-29T04:56:51.126Z,22.18
2022-07-29T04:59:56.090Z,22.20
2022-07-29T05:03:01.058Z,22.30
2022-07-29T05:06:06.174Z,22.30
2022-07-29T05:09:10.703Z,22.32
2022-07-29T05:12:15.951Z,22.40
2022-07-29T05:15:21.166Z,22.40
2022-07-29T05:18:26.681Z,22.50
2022-07-29T05:21:31.312Z,22.58
2022-07-29T05:24:36.145Z,22.70
2022-07-29T05:27:40.967Z,22.70
2022-07-29T05:30:46.009Z,22.84
2022-07-29T05:33:50.827Z,23.00
2022-07-29T05:36:55.725Z,23.10
2022-07-29T05:40:00.392Z,23.20
2022-07-29T05:43:05.194Z,23.30
2022-07-29T05:46:09.852Z,23.40
2022-07-29T05:49:26.829Z,23.58
2022-07-29T05:52:32.456Z,23.70
2022-07-29T05:55:37.281Z,23.90
2022-07-29T05:58:44.295Z,24.00
2022-07-29T06:01:49.195Z,24.16
2022-07-29T06:04:54.126Z,24.30
2022-07-29T06:07:59.162Z,24.40
2022-07-29T06:11:04.837Z,24.50
2022-07-29T06:14:10.024Z,24.60
2022-07-29T06:17:14.684Z,24.50
2022-07-29T06:20:20.158Z,24.50
2022-07-29T06:23:32.168Z,24.54
2022-07-29T06:26:39.592Z,24.62
2022-07-29T06:29:45.159Z,24.70
2022-07-29T06:32:51.782Z,24.80
2022-07-29T06:35:56.530Z,24.90
2022-07-29T06:39:02.763Z,25.00
2022-07-29T06:42:08.861Z,25.10
2022-07-29T06:45:14.337Z,25.20
2022-07-29T06:48:19.094Z,25.40
2022-07-29T06:51:24.381Z,25.50
2022-07-29T06:54:29.606Z,25.50
2022-07-29T06:57:34.772Z,25.60
2022-07-29T07:00:40.055Z,25.80
2022-07-29T07:03:44.776Z,26.00
2022-07-29T07:06:49.573Z,26.10
2022-07-29T07:09:55.288Z,26.28
2022-07-29T07:13:00.056Z,26.40
2022-07-29T07:16:06.506Z,26.50
2022-07-29T07:19:11.493Z,26.50
2022-07-29T07:22:19.236Z,26.60
2022-07-29T07:25:24.148Z,26.70
2022-07-29T07:28:29.159Z,26.80
2022-07-29T07:31:33.857Z,26.90
2022-07-29T07:34:39.134Z,27.10
2022-07-29T07:37:44.281Z,27.28
2022-07-29T07:40:51.528Z,27.48
2022-07-29T07:43:56.451Z,27.60
2022-07-29T07:47:03.947Z,27.70
2022-07-29T07:50:21.239Z,27.80
2022-07-29T07:53:27.008Z,27.90
2022-07-29T07:56:35.180Z,28.00
2022-07-29T07:59:40.943Z,28.10
2022-07-29T08:02:46.205Z,28.20
2022-07-29T08:05:52.318Z,28.20
2022-07-29T08:09:19.494Z,28.38
2022-07-29T08:12:22.276Z,28.50
2022-07-29T08:15:27.076Z,28.60
2022-07-29T08:18:33.209Z,28.70
2022-07-29T08:21:38.420Z,28.80
2022-07-29T08:24:52.704Z,28.90
2022-07-29T08:27:57.380Z,28.92
2022-07-29T08:31:02.084Z,29.00
2022-07-29T08:34:07.633Z,29.02
2022-07-29T08:37:13.196Z,29.20
2022-07-29T08:40:18.805Z,29.32
2022-07-29T08:43:24.206Z,29.50
2022-07-29T08:46:28.985Z,29.60
2022-07-29T08:49:36.377Z,29.76
2022-07-29T08:52:43.627Z,29.90
2022-07-29T08:55:51.711Z,30.04
2022-07-29T08:58:58.640Z,30.20
2022-07-29T09:02:05.387Z,30.30
2022-07-29T09:05:11.779Z,30.40
2022-07-29T09:08:17.516Z,30.50
2022-07-29T09:11:22.631Z,30.60
2022-07-29T09:14:27.596Z,30.70
2022-07-29T09:17:45.959Z,30.80
2022-07-29T09:21:12.679Z,30.90
2022-07-29T09:24:17.477Z,31.00
2022-07-29T09:27:27.021Z,31.20
2022-07-29T09:30:32.471Z,31.24
2022-07-29T09:33:39.760Z,31.40
2022-07-29T09:36:46.884Z,31.50
2022-07-29T09:39:51.841Z,31.70
2022-07-29T09:42:57.707Z,31.80
2022-07-29T09:46:13.873Z,32.00
2022-07-29T09:49:18.682Z,32.16
2022-07-29T09:52:24.063Z,32.30
2022-07-29T09:55:29.429Z,32.50
2022-07-29T09:58:35.246Z,32.70
2022-07-29T10:01:39.870Z,32.70
2022-07-29T10:04:45.494Z,32.40
2022-07-29T10:07:54.317Z,32.20
2022-07-29T10:11:13.602Z,32.00
2022-07-29T10:14:18.667Z,31.70
2022-07-29T10:17:24.145Z,31.42
2022-07-29T10:20:30.150Z,31.20
2022-07-29T10:23:46.824Z,31.10
2022-07-29T10:26:52.744Z,30.92
2022-07-29T10:29:57.666Z,30.80
2022-07-29T10:33:40.129Z,30.88
2022-07-29T10:36:57.675Z,31.08
2022-07-29T10:40:37.107Z,30.90
2022-07-29T10:47:26.545Z,30.80
2022-07-29T10:50:59.904Z,30.80
2022-07-29T10:54:09.212Z,30.70
2022-07-29T10:57:21.645Z,31.00
2022-07-29T11:00:36.348Z,31.06
2022-07-29T11:03:57.266Z,31.00
2022-07-29T11:07:17.624Z,30.90
2022-07-29T11:10:30.989Z,30.80
2022-07-29T11:14:05.882Z,31.10
2022-07-29T11:17:18.399Z,31.70
2022-07-29T11:20:49.821Z,32.24
2022-07-29T11:24:29.045Z,32.74
2022-07-29T11:27:40.772Z,32.90
2022-07-29T11:30:57.864Z,33.00
2022-07-29T11:34:27.980Z,33.00
2022-07-29T11:41:40.425Z,32.70
2022-07-29T11:45:08.485Z,32.60
2022-07-29T11:48:32.521Z,32.70
2022-07-29T11:51:48.227Z,33.14
2022-07-29T11:55:00.850Z,33.50
2022-07-29T11:58:25.086Z,33.80
2022-07-29T12:01:36.988Z,34.10
2022-07-29T12:04:56.213Z,34.50
2022-07-29T12:07:01.663Z,32.90
2022-07-29T12:08:14.783Z,34.90
2022-07-29T12:11:23.921Z,34.90
2022-07-29T12:14:35.154Z,34.80
2022-07-29T12:17:43.342Z,34.70
2022-07-29T12:20:59.090Z,34.70
2022-07-29T12:24:12.281Z,34.70
2022-07-29T12:27:29.290Z,34.40
2022-07-29T12:30:52.707Z,34.44
2022-07-29T12:34:00.848Z,34.22
2022-07-29T12:37:11.516Z,33.74
2022-07-29T12:40:21.139Z,33.30
2022-07-29T12:43:30.062Z,32.92
2022-07-29T12:46:38.124Z,32.70
2022-07-29T12:49:47.845Z,32.82
2022-07-29T12:52:56.071Z,33.34
2022-07-29T12:56:15.500Z,33.82
2022-07-29T12:59:33.348Z,34.14
2022-07-29T13:02:44.670Z,34.16
2022-07-29T13:05:52.790Z,33.70
2022-07-29T13:09:09.294Z,33.26
2022-07-29T13:12:17.854Z,32.92
2022-07-29T13:15:24.511Z,32.94
2022-07-29T13:18:37.753Z,33.30
2022-07-29T13:21:47.923Z,33.70
2022-07-29T13:24:59.887Z,34.00
2022-07-29T13:28:08.274Z,34.10
2022-07-29T13:31:16.289Z,34.32
2022-07-29T13:34:25.349Z,34.60
2022-07-29T13:37:35.335Z,34.90
2022-07-29T13:40:43.232Z,34.98
2022-07-29T13:43:51.099Z,35.00
2022-07-29T13:47:00.027Z,35.14
2022-07-29T13:50:11.624Z,35.30
2022-07-29T13:53:19.737Z,35.30
2022-07-29T13:56:35.225Z,35.30
2022-07-29T13:59:44.069Z,35.30
2022-07-29T14:02:52.731Z,35.50
2022-07-29T14:06:01.347Z,35.80
2022-07-29T14:09:10.721Z,36.10
2022-07-29T14:12:18.608Z,36.20
2022-07-29T14:15:27.008Z,36.00
2022-07-29T14:18:33.211Z,36.00
2022-07-29T14:21:41.355Z,36.10
2022-07-29T14:24:49.485Z,36.30
2022-07-29T14:27:57.757Z,36.40
2022-07-29T14:31:06.540Z,36.40
2022-07-29T14:34:14.388Z,36.40
2022-07-29T14:37:22.172Z,36.40
2022-07-29T14:40:30.284Z,36.40
2022-07-29T14:43:38.934Z,36.50
2022-07-29T14:46:49.498Z,36.36
2022-07-29T14:49:57.467Z,36.00
2022-07-29T14:53:05.871Z,35.88
2022-07-29T14:56:35.498Z,35.88
2022-07-29T14:59:40.037Z,36.00
2022-07-29T15:03:03.288Z,36.10
2022-07-29T15:06:11.396Z,36.10
2022-07-29T15:09:19.415Z,36.10
2022-07-29T15:12:27.387Z,36.10
2022-07-29T15:15:35.470Z,36.10
2022-07-29T15:18:43.245Z,36.00
2022-07-29T15:21:51.273Z,36.00
2022-07-29T15:24:59.277Z,35.90
2022-07-29T15:28:09.324Z,35.74
2022-07-29T15:31:17.519Z,35.60
2022-07-29T15:34:25.526Z,35.70
2022-07-29T15:37:48.689Z,35.50
2022-07-29T15:40:57.693Z,35.30
2022-07-29T15:44:05.676Z,35.20
2022-07-29T15:47:13.671Z,35.10
2022-07-29T15:50:24.506Z,35.00
2022-07-29T15:53:32.537Z,34.70
2022-07-29T15:56:42.976Z,34.50
2022-07-29T15:59:52.074Z,34.40
2022-07-29T16:02:59.918Z,34.20
2022-07-29T16:06:08.917Z,34.00
2022-07-29T16:09:16.926Z,33.84
2022-07-29T16:12:25.676Z,33.70
2022-07-29T16:15:31.884Z,33.60
2022-07-29T16:18:39.731Z,33.40
2022-07-29T16:21:47.564Z,33.20
2022-07-29T16:24:56.011Z,33.00
2022-07-29T16:28:03.753Z,32.80
2022-07-29T16:31:12.183Z,32.60
2022-07-29T16:34:20.015Z,32.46
2022-07-29T16:37:33.609Z,32.30
2022-07-29T16:40:41.435Z,32.20
2022-07-29T16:43:49.979Z,32.10
2022-07-29T16:47:00.018Z,32.10
2022-07-29T16:50:09.952Z,32.00
2022-07-29T16:53:17.872Z,31.90
2022-07-29T16:56:26.239Z,31.90
2022-07-29T16:59:34.471Z,31.80
2022-07-29T17:02:51.799Z,31.80
2022-07-29T17:06:00.159Z,31.70
2022-07-29T17:09:10.362Z,31.60
2022-07-29T17:12:18.066Z,31.50
2022-07-29T17:15:26.632Z,31.48
2022-07-29T17:18:34.369Z,31.40
2022-07-29T17:21:47.329Z,31.30
2022-07-29T17:24:57.278Z,31.28
2022-07-29T17:28:05.731Z,31.20
2022-07-29T17:31:14.247Z,31.10
2022-07-29T17:34:22.742Z,31.00
2022-07-29T17:37:30.964Z,30.90
2022-07-29T17:40:39.121Z,30.80
2022-07-29T17:43:47.164Z,30.70
2022-07-29T17:46:55.322Z,30.50
2022-07-29T17:50:03.673Z,30.30
2022-07-29T17:53:15.898Z,30.00
2022-07-29T17:56:24.746Z,29.70
2022-07-29T17:59:32.627Z,29.46
2022-07-29T18:02:40.659Z,29.22
2022-07-29T18:05:49.583Z,29.06
2022-07-29T18:08:57.746Z,28.90
2022-07-29T18:12:06.033Z,28.80
2022-07-29T18:15:15.062Z,28.66
2022-07-29T18:18:21.336Z,28.60
2022-07-29T18:21:44.281Z,28.40
2022-07-29T18:24:57.507Z,28.30
2022-07-29T18:28:06.428Z,28.10
2022-07-29T18:31:13.581Z,28.06
2022-07-29T18:34:21.543Z,28.00
2022-07-29T18:38:01.535Z,27.90
2022-07-29T18:40:57.957Z,27.80
2022-07-29T18:44:06.315Z,27.70
2022-07-29T18:47:14.263Z,27.70
2022-07-29T18:50:26.962Z,27.60
2022-07-29T18:53:37.388Z,27.58
2022-07-29T18:56:45.888Z,27.50
2022-07-29T18:59:54.500Z,27.40
2022-07-29T19:03:03.414Z,27.26
2022-07-29T19:06:11.398Z,27.16
2022-07-29T19:09:19.925Z,27.04
2022-07-29T19:12:27.968Z,26.92
2022-07-29T19:15:35.821Z,26.90
2022-07-29T19:18:45.385Z,26.80
2022-07-29T19:21:53.262Z,26.74
2022-07-29T19:25:01.066Z,26.70
2022-07-29T19:28:09.866Z,26.50
2022-07-29T19:31:18.573Z,26.40
2022-07-29T19:34:26.565Z,26.30
2022-07-29T19:37:34.463Z,26.20
2022-07-29T19:40:42.844Z,26.20
2022-07-29T19:43:53.240Z,26.10
2022-07-29T19:47:02.025Z,26.10
2022-07-29T19:50:12.554Z,26.10
2022-07-29T19:53:20.540Z,26.02
2022-07-29T19:56:30.224Z,26.00
2022-07-29T19:59:38.437Z,26.00
2022-07-29T20:02:46.662Z,25.94
2022-07-29T20:05:54.858Z,25.88
2022-07-29T20:09:06.167Z,25.70
2022-07-29T20:12:15.132Z,25.60
2022-07-29T20:15:23.020Z,25.50
2022-07-29T20:18:30.955Z,25.40
2022-07-29T20:21:38.948Z,25.30
2022-07-29T20:24:47.448Z,25.20
2022-07-29T20:27:55.401Z,25.20
2022-07-29T20:31:03.273Z,25.10
2022-07-29T20:34:11.820Z,25.02
2022-07-29T20:37:21.188Z,25.00
2022-07-29T20:40:29.102Z,25.00
2022-07-29T20:43:39.296Z,25.00
2022-07-29T20:46:48.955Z,24.98
2022-07-29T20:49:57.187Z,24.90
2022-07-29T20:53:05.143Z,24.90
2022-07-29T20:56:13.529Z,24.90
2022-07-29T20:59:21.696Z,24.90
2022-07-29T21:02:31.549Z,24.90
2022-07-29T21:05:43.937Z,24.90
2022-07-29T21:08:52.395Z,24.90
2022-07-29T21:12:02.172Z,24.90
2022-07-29T21:15:13.708Z,24.90
2022-07-29T21:18:30.485Z,24.90
2022-07-29T21:21:40.985Z,24.80
2022-07-29T21:24:48.913Z,24.80
2022-07-29T21:28:14.574Z,24.70
2022-07-29T21:31:22.467Z,24.70
2022-07-29T21:34:30.524Z,24.60
2022-07-29T21:37:38.453Z,24.50
2022-07-29T21:40:47.526Z,24.50
2022-07-29T21:43:58.324Z,24.40
2022-07-29T21:47:07.796Z,24.40
2022-07-29T21:50:15.885Z,24.34
2022-07-29T21:53:24.396Z,24.30
2022-07-29T21:56:35.227Z,24.20
2022-07-29T21:59:42.841Z,24.20
2022-07-29T22:02:50.988Z,24.10
2022-07-29T22:05:58.971Z,24.00
2022-07-29T22:09:06.964Z,23.94
2022-07-29T22:12:15.021Z,23.90
2022-07-29T22:15:23.458Z,23.82
2022-07-29T22:18:31.475Z,23.80
2022-07-29T22:21:39.294Z,23.80
2022-07-29T22:24:47.365Z,23.70
2022-07-29T22:27:55.321Z,23.70
2022-07-29T22:31:03.690Z,23.60
2022-07-29T22:34:13.179Z,23.60
2022-07-29T22:37:19.500Z,23.56
2022-07-29T22:40:30.548Z,23.50
2022-07-29T22:43:41.082Z,23.40
2022-07-29T22:46:49.097Z,23.40
2022-07-29T22:49:57.975Z,23.30
2022-07-29T22:53:05.891Z,23.30
2022-07-29T22:56:14.208Z,23.30
2022-07-29T22:59:22.318Z,23.28
2022-07-29T23:02:30.346Z,23.28
2022-07-29T23:05:38.201Z,23.20
2022-07-29T23:08:46.508Z,23.20
2022-07-29T23:11:54.317Z,23.12
2022-07-29T23:15:02.282Z,23.10
2022-07-29T23:18:12.457Z,23.00
2022-07-29T23:21:21.782Z,22.92
2022-07-29T23:24:30.301Z,22.90
2022-07-29T23:27:38.261Z,22.80
2022-07-29T23:30:46.474Z,22.70
2022-07-29T23:33:54.701Z,22.70
2022-07-29T23:37:03.085Z,22.60
2022-07-29T23:40:14.887Z,22.60
2022-07-29T23:43:25.268Z,22.50
2022-07-29T23:46:33.570Z,22.40
2022-07-29T23:49:41.603Z,22.38
2022-07-29T23:52:49.785Z,22.30
2022-07-29T23:55:58.297Z,22.20
2022-07-29T23:59:06.247Z,22.20
